createdAt,value
2022-08-22T00:01:31.967Z,18.00
2022-08-22T00:02:45.363Z,20.40
2022-08-22T00:02:45.719Z,19.80
2022-08-22T00:02:52.694Z,20.80
2022-08-22T00:02:52.803Z,20.60
2022-08-22T00:02:59.341Z,18.10
2022-08-22T00:03:00.233Z,19.30
2022-08-22T00:03:11.844Z,18.90
2022-08-22T00:04:10.541Z,18.00
2022-08-22T00:06:47.980Z,18.00
2022-08-22T00:09:29.763Z,17.90
2022-08-22T00:12:14.595Z,18.00
2022-08-22T00:14:49.314Z,18.00
2022-08-22T00:17:36.224Z,18.00
2022-08-22T00:20:13.093Z,18.00
2022-08-22T00:22:47.692Z,18.00
2022-08-22T00:25:46.420Z,18.00
2022-08-22T00:28:18.396Z,18.00
2022-08-22T00:30:54.270Z,18.00
2022-08-22T00:33:34.023Z,18.00
2022-08-22T00:36:16.266Z,18.00
2022-08-22T00:38:49.635Z,17.90
2022-08-22T00:41:31.903Z,17.90
2022-08-22T00:44:19.629Z,17.90
2022-08-22T00:47:02.920Z,17.90
2022-08-22T00:50:03.436Z,17.90
2022-08-22T00:52:55.059Z,17.90
2022-08-22T00:55:55.035Z,17.90
2022-08-22T00:58:55.929Z,17.90
2022-08-22T01:01:33.602Z,17.90
2022-08-22T01:04:28.733Z,17.90
2022-08-22T01:07:12.394Z,18.00
2022-08-22T01:09:50.861Z,17.80
2022-08-22T01:12:46.966Z,17.90
2022-08-22T01:15:20.722Z,17.80
2022-08-22T01:18:44.881Z,17.80
2022-08-22T01:21:38.392Z,17.80
2022-08-22T01:25:02.593Z,17.80
2022-08-22T01:28:04.419Z,17.80
2022-08-22T01:31:14.175Z,17.80
2022-08-22T01:34:14.041Z,17.70
2022-08-22T01:37:01.674Z,17.80
2022-08-22T01:40:00.478Z,17.70
2022-08-22T01:42:45.228Z,18.20
2022-08-22T01:45:32.355Z,17.70
2022-08-22T01:48:09.571Z,17.70
2022-08-22T01:50:44.773Z,17.70
2022-08-22T01:53:22.725Z,17.70
2022-08-22T01:56:01.650Z,17.70
2022-08-22T01:58:32.564Z,17.70
2022-08-22T02:01:13.956Z,17.70
2022-08-22T02:03:53.423Z,17.80
2022-08-22T02:06:32.364Z,17.60
2022-08-22T02:09:05.787Z,17.50
2022-08-22T02:11:41.690Z,17.70
2022-08-22T02:14:24.333Z,17.60
2022-08-22T02:16:58.379Z,17.70
2022-08-22T02:19:37.858Z,17.60
2022-08-22T02:22:23.526Z,17.80
2022-08-22T02:25:00.790Z,17.60
2022-08-22T02:27:38.267Z,17.60
2022-08-22T02:30:10.418Z,17.60
2022-08-22T02:32:52.882Z,17.60
2022-08-22T02:35:27.025Z,17.60
2022-08-22T02:38:16.149Z,17.60
2022-08-22T02:40:52.719Z,17.50
2022-08-22T02:43:25.141Z,17.50
2022-08-22T02:45:57.009Z,17.50
2022-08-22T02:48:37.391Z,17.40
2022-08-22T02:51:11.557Z,17.50
2022-08-22T02:53:49.868Z,17.50
2022-08-22T02:56:22.610Z,17.50
2022-08-22T02:58:57.307Z,17.50
2022-08-22T03:01:40.132Z,17.50
2022-08-22T03:04:46.712Z,17.90
2022-08-22T03:07:26.479Z,17.50
2022-08-22T03:10:06.532Z,17.50
2022-08-22T03:12:42.689Z,17.50
2022-08-22T03:15:19.180Z,17.50
2022-08-22T03:17:52.013Z,17.50
2022-08-22T03:20:37.042Z,17.40
2022-08-22T03:23:12.517Z,17.40
2022-08-22T03:25:48.334Z,17.50
2022-08-22T03:28:22.762Z,17.40
2022-08-22T03:30:59.438Z,17.30
2022-08-22T03:33:29.656Z,17.30
2022-08-22T03:36:10.531Z,17.40
2022-08-22T03:38:53.350Z,17.20
2022-08-22T03:41:51.259Z,17.20
2022-08-22T03:44:55.283Z,17.20
2022-08-22T03:47:56.151Z,17.10
2022-08-22T03:50:54.569Z,17.10
2022-08-22T03:53:48.042Z,17.00
2022-08-22T03:56:58.911Z,17.00
2022-08-22T04:00:11.856Z,17.00
2022-08-22T04:03:21.847Z,16.90
2022-08-22T04:06:21.510Z,16.90
2022-08-22T04:09:18.134Z,16.90
2022-08-22T04:12:17.502Z,16.80
2022-08-22T04:15:16.474Z,16.80
2022-08-22T04:18:03.389Z,16.70
2022-08-22T04:21:02.302Z,16.70
2022-08-22T04:23:50.396Z,16.70
2022-08-22T04:26:28.679Z,16.70
2022-08-22T04:29:03.944Z,16.60
2022-08-22T04:31:37.856Z,16.60
2022-08-22T04:34:15.293Z,16.60
2022-08-22T04:36:50.065Z,16.60
2022-08-22T04:39:23.402Z,16.60
2022-08-22T04:42:06.942Z,16.50
2022-08-22T04:44:51.514Z,16.50
2022-08-22T04:47:30.545Z,16.50
2022-08-22T04:50:04.382Z,16.40
2022-08-22T04:52:47.531Z,16.40
2022-08-22T04:55:25.467Z,16.40
2022-08-22T04:58:06.408Z,16.40
2022-08-22T05:00:40.781Z,16.40
2022-08-22T05:03:15.838Z,16.40
2022-08-22T05:05:45.384Z,16.40
2022-08-22T05:08:19.690Z,16.40
2022-08-22T05:10:51.846Z,16.40
2022-08-22T05:13:24.578Z,16.30
2022-08-22T05:15:56.743Z,16.30
2022-08-22T05:18:30.148Z,16.30
2022-08-22T05:21:02.220Z,16.50
2022-08-22T05:23:35.212Z,16.30
2022-08-22T05:26:06.261Z,16.30
2022-08-22T05:28:37.181Z,16.30
2022-08-22T05:31:09.805Z,16.30
2022-08-22T05:33:44.265Z,16.30
2022-08-22T05:36:17.101Z,16.30
2022-08-22T05:38:50.401Z,16.30
2022-08-22T05:41:23.743Z,16.30
2022-08-22T05:43:53.798Z,16.30
2022-08-22T05:46:27.069Z,16.30
2022-08-22T05:49:00.540Z,16.30
2022-08-22T05:51:36.528Z,16.30
2022-08-22T05:54:13.229Z,16.30
2022-08-22T05:56:45.099Z,16.30
2022-08-22T05:59:24.662Z,16.30
2022-08-22T06:02:01.965Z,16.30
2022-08-22T06:04:38.244Z,16.40
2022-08-22T06:07:12.932Z,16.30
2022-08-22T06:10:02.829Z,16.40
2022-08-22T06:12:35.389Z,16.30
2022-08-22T06:15:12.283Z,16.40
2022-08-22T06:17:45.400Z,16.70
2022-08-22T06:20:19.757Z,16.50
2022-08-22T06:22:53.654Z,16.50
2022-08-22T06:25:25.930Z,16.50
2022-08-22T06:27:54.686Z,16.60
2022-08-22T06:30:27.491Z,16.60
2022-08-22T06:33:01.445Z,16.60
2022-08-22T06:35:54.722Z,16.70
2022-08-22T06:38:26.381Z,16.80
2022-08-22T06:40:55.665Z,16.80
2022-08-22T06:43:25.701Z,16.90
2022-08-22T06:45:54.494Z,16.90
2022-08-22T06:48:24.775Z,16.90
2022-08-22T06:50:58.561Z,17.00
2022-08-22T06:53:29.327Z,17.10
2022-08-22T06:56:02.616Z,17.10
2022-08-22T06:58:35.116Z,17.20
2022-08-22T07:01:12.183Z,17.20
2022-08-22T07:03:45.918Z,17.20
2022-08-22T07:06:18.358Z,17.30
2022-08-22T07:08:47.504Z,17.40
2022-08-22T07:11:21.740Z,17.30
2022-08-22T07:13:54.789Z,17.40
2022-08-22T07:16:31.065Z,17.50
2022-08-22T07:18:59.891Z,17.60
2022-08-22T07:21:36.200Z,17.70
2022-08-22T07:24:05.132Z,17.70
2022-08-22T07:26:40.032Z,17.80
2022-08-22T07:29:14.210Z,17.80
2022-08-22T07:31:52.080Z,17.90
2022-08-22T07:34:33.596Z,17.90
2022-08-22T07:37:09.171Z,18.00
2022-08-22T07:39:44.928Z,18.10
2022-08-22T07:42:17.234Z,18.20
2022-08-22T07:44:53.358Z,18.10
2022-08-22T07:47:26.767Z,18.30
2022-08-22T07:49:59.699Z,18.30
2022-08-22T07:52:37.335Z,18.50
2022-08-22T07:55:14.023Z,18.60
2022-08-22T07:57:47.455Z,18.60
2022-08-22T08:00:18.939Z,18.70
2022-08-22T08:02:50.909Z,18.70
2022-08-22T08:05:21.126Z,18.80
2022-08-22T08:07:52.973Z,18.90
2022-08-22T08:10:26.710Z,19.00
2022-08-22T08:13:02.486Z,19.00
2022-08-22T08:15:34.304Z,19.20
2022-08-22T08:18:07.046Z,19.20
2022-08-22T08:20:37.102Z,19.30
2022-08-22T08:23:10.337Z,19.50
2022-08-22T08:25:56.893Z,19.40
2022-08-22T08:28:37.672Z,19.40
2022-08-22T08:31:10.936Z,19.40
2022-08-22T08:33:42.616Z,19.60
2022-08-22T08:36:26.402Z,20.20
2022-08-22T08:39:03.352Z,19.80
2022-08-22T08:42:06.075Z,19.90
2022-08-22T08:44:41.531Z,20.00
2022-08-22T08:47:33.749Z,20.10
2022-08-22T08:50:29.055Z,20.20
2022-08-22T08:53:24.283Z,20.20
2022-08-22T08:56:00.153Z,20.30
2022-08-22T08:58:35.332Z,20.40
2022-08-22T09:01:21.943Z,20.50
2022-08-22T09:04:37.551Z,20.60
2022-08-22T09:07:37.236Z,20.60
2022-08-22T09:10:27.346Z,20.70
2022-08-22T09:13:41.471Z,20.80
2022-08-22T09:16:25.171Z,20.80
2022-08-22T09:19:20.554Z,21.00
2022-08-22T09:22:17.807Z,21.10
2022-08-22T09:25:12.153Z,21.20
2022-08-22T09:27:54.516Z,21.30
2022-08-22T09:30:31.362Z,21.30
2022-08-22T09:33:04.509Z,21.50
2022-08-22T09:35:45.623Z,21.60
2022-08-22T09:38:28.972Z,21.60
2022-08-22T09:41:08.485Z,21.80
2022-08-22T09:43:44.157Z,21.80
2022-08-22T09:46:21.964Z,21.90
2022-08-22T09:49:06.489Z,22.00
2022-08-22T09:51:43.202Z,22.00
2022-08-22T09:54:31.639Z,22.10
2022-08-22T09:57:16.176Z,22.20
2022-08-22T10:00:13.110Z,22.30
2022-08-22T10:02:51.635Z,22.30
2022-08-22T10:05:40.894Z,22.40
2022-08-22T10:08:20.929Z,22.60
2022-08-22T10:11:07.260Z,22.70
2022-08-22T10:13:57.856Z,22.80
2022-08-22T10:17:00.590Z,22.90
2022-08-22T10:19:36.543Z,22.90
2022-08-22T10:22:30.379Z,23.10
2022-08-22T10:25:32.046Z,23.20
2022-08-22T10:28:11.973Z,23.30
2022-08-22T10:30:50.137Z,23.40
2022-08-22T10:33:29.085Z,23.60
2022-08-22T10:36:05.371Z,23.80
2022-08-22T10:38:46.540Z,23.90
2022-08-22T10:41:23.110Z,23.80
2022-08-22T10:44:01.512Z,24.20
2022-08-22T10:46:37.740Z,24.40
2022-08-22T10:49:14.313Z,24.50
2022-08-22T10:51:50.311Z,24.40
2022-08-22T10:54:47.207Z,24.40
2022-08-22T10:57:32.338Z,24.50
2022-08-22T11:00:09.461Z,24.80
2022-08-22T11:02:42.247Z,25.00
2022-08-22T11:05:33.457Z,25.00
2022-08-22T11:08:39.513Z,25.00
2022-08-22T11:11:20.506Z,25.10
2022-08-22T11:14:06.783Z,25.20
2022-08-22T11:16:47.922Z,25.30
2022-08-22T11:19:42.452Z,25.40
2022-08-22T11:22:30.400Z,25.40
2022-08-22T11:25:41.177Z,25.50
2022-08-22T11:28:38.813Z,25.80
2022-08-22T11:31:19.744Z,25.90
2022-08-22T11:33:55.224Z,26.20
2022-08-22T11:36:35.798Z,26.30
2022-08-22T11:39:18.665Z,26.50
2022-08-22T11:41:58.530Z,26.60
2022-08-22T11:44:31.199Z,26.80
2022-08-22T11:47:02.784Z,26.60
2022-08-22T11:49:39.499Z,26.70
2022-08-22T11:52:41.382Z,26.70
2022-08-22T11:55:21.545Z,26.50
2022-08-22T11:57:53.719Z,26.80
2022-08-22T12:00:30.800Z,26.70
2022-08-22T12:03:19.047Z,26.90
2022-08-22T12:05:55.831Z,27.20
2022-08-22T12:08:46.268Z,27.40
2022-08-22T12:11:20.575Z,27.40
2022-08-22T12:14:06.165Z,27.50
2022-08-22T12:16:42.657Z,27.60
2022-08-22T12:19:27.928Z,27.70
2022-08-22T12:22:33.335Z,27.90
2022-08-22T12:25:12.838Z,28.20
2022-08-22T12:27:55.372Z,28.50
2022-08-22T12:30:34.307Z,28.60
2022-08-22T12:33:24.913Z,28.80
2022-08-22T12:36:18.454Z,28.60
2022-08-22T12:39:08.311Z,29.00
2022-08-22T12:41:57.838Z,29.10
2022-08-22T12:44:37.920Z,29.20
2022-08-22T12:47:32.027Z,29.50
2022-08-22T12:50:20.335Z,29.50
2022-08-22T12:53:09.399Z,29.70
2022-08-22T12:55:56.923Z,29.90
2022-08-22T12:58:42.556Z,30.10
2022-08-22T13:01:13.210Z,30.10
2022-08-22T13:03:47.947Z,30.00
2022-08-22T13:06:48.588Z,30.10
2022-08-22T13:09:20.782Z,30.10
2022-08-22T13:12:02.291Z,30.10
2022-08-22T13:14:34.044Z,30.30
2022-08-22T13:17:10.709Z,30.60
2022-08-22T13:20:01.979Z,30.70
2022-08-22T13:22:33.851Z,30.90
2022-08-22T13:25:08.650Z,30.60
2022-08-22T13:27:50.664Z,30.60
2022-08-22T13:30:37.717Z,30.60
2022-08-22T13:33:10.095Z,30.20
2022-08-22T13:35:51.883Z,30.60
2022-08-22T13:38:26.390Z,30.40
2022-08-22T13:40:56.837Z,30.70
2022-08-22T13:43:29.742Z,30.90
2022-08-22T13:46:01.982Z,31.00
2022-08-22T13:48:46.849Z,30.80
2022-08-22T13:51:24.842Z,30.90
2022-08-22T13:54:02.215Z,30.90
2022-08-22T13:56:38.060Z,31.40
2022-08-22T13:59:25.312Z,31.50
2022-08-22T14:02:07.629Z,31.60
2022-08-22T14:04:48.655Z,31.90
2022-08-22T14:07:34.530Z,32.00
2022-08-22T14:10:14.800Z,32.10
2022-08-22T14:13:05.205Z,32.10
2022-08-22T14:15:45.960Z,32.20
2022-08-22T14:18:18.611Z,32.10
2022-08-22T14:20:48.215Z,32.50
2022-08-22T14:23:27.160Z,32.80
2022-08-22T14:25:56.458Z,33.20
2022-08-22T14:28:30.357Z,33.30
2022-08-22T14:31:03.207Z,33.50
2022-08-22T14:33:36.226Z,33.90
2022-08-22T14:36:17.457Z,33.60
2022-08-22T14:38:53.327Z,33.80
2022-08-22T14:41:56.106Z,34.50
2022-08-22T14:44:23.335Z,34.60
2022-08-22T14:46:54.836Z,34.70
2022-08-22T14:49:31.650Z,35.10
2022-08-22T14:52:19.823Z,35.60
2022-08-22T14:54:51.018Z,35.30
2022-08-22T14:57:20.388Z,35.30
2022-08-22T14:59:52.221Z,35.50
2022-08-22T15:02:27.672Z,35.50
2022-08-22T15:04:57.715Z,35.50
2022-08-22T15:07:28.247Z,35.10
2022-08-22T15:10:06.146Z,34.80
2022-08-22T15:12:38.414Z,35.00
2022-08-22T15:15:11.363Z,35.40
2022-08-22T15:17:44.842Z,35.60
2022-08-22T15:20:28.683Z,35.60
2022-08-22T15:23:00.435Z,35.70
2022-08-22T15:25:34.403Z,35.60
2022-08-22T15:28:06.675Z,35.70
2022-08-22T15:30:44.342Z,35.70
2022-08-22T15:33:16.918Z,36.10
2022-08-22T15:35:48.445Z,36.40
2022-08-22T15:38:29.191Z,36.10
2022-08-22T15:41:39.864Z,36.10
2022-08-22T15:44:31.012Z,36.00
2022-08-22T15:47:11.584Z,35.80
2022-08-22T15:49:55.516Z,35.90
2022-08-22T15:52:29.263Z,36.00
2022-08-22T15:55:25.421Z,36.20
2022-08-22T15:58:04.734Z,36.40
2022-08-22T16:00:43.401Z,36.50
2022-08-22T16:03:24.456Z,36.30
2022-08-22T16:05:55.994Z,36.10
2022-08-22T16:08:29.651Z,36.30
2022-08-22T16:11:32.261Z,36.20
2022-08-22T16:14:21.448Z,36.30
2022-08-22T16:17:02.042Z,35.90
2022-08-22T16:19:31.970Z,36.00
2022-08-22T16:22:14.547Z,35.80
2022-08-22T16:25:14.267Z,35.10
2022-08-22T16:27:55.446Z,35.30
2022-08-22T16:30:36.654Z,35.20
2022-08-22T16:33:05.446Z,35.20
2022-08-22T16:36:22.966Z,34.60
2022-08-22T16:38:53.977Z,33.80
2022-08-22T16:41:40.317Z,33.90
2022-08-22T16:44:41.358Z,33.80
2022-08-22T16:47:18.225Z,33.70
2022-08-22T16:50:00.337Z,33.50
2022-08-22T16:53:12.361Z,32.90
2022-08-22T16:56:03.127Z,32.60
2022-08-22T16:59:22.951Z,32.50
2022-08-22T17:02:19.423Z,32.30
2022-08-22T17:05:00.632Z,32.10
2022-08-22T17:07:40.930Z,31.70
2022-08-22T17:10:30.694Z,31.70
2022-08-22T17:13:14.260Z,31.50
2022-08-22T17:15:56.091Z,31.40
2022-08-22T17:18:43.795Z,31.20
2022-08-22T17:21:17.705Z,31.00
2022-08-22T17:23:55.333Z,30.70
2022-08-22T17:26:36.013Z,30.40
2022-08-22T17:29:12.683Z,30.20
2022-08-22T17:31:51.362Z,29.90
2022-08-22T17:34:32.256Z,29.90
2022-08-22T17:37:09.247Z,29.80
2022-08-22T17:39:55.557Z,29.60
2022-08-22T17:43:03.514Z,29.30
2022-08-22T17:45:50.198Z,29.20
2022-08-22T17:48:23.209Z,29.10
2022-08-22T17:50:56.095Z,29.00
2022-08-22T17:53:31.358Z,28.70
2022-08-22T17:56:07.831Z,28.60
2022-08-22T17:58:45.038Z,28.20
2022-08-22T18:01:15.866Z,28.20
2022-08-22T18:03:52.478Z,28.00
2022-08-22T18:06:24.785Z,27.70
2022-08-22T18:09:13.639Z,27.70
2022-08-22T18:11:47.338Z,27.60
2022-08-22T18:14:28.390Z,27.60
2022-08-22T18:16:59.090Z,27.40
2022-08-22T18:19:40.959Z,27.30
2022-08-22T18:22:18.957Z,27.10
2022-08-22T18:24:52.355Z,27.00
2022-08-22T18:27:34.416Z,26.80
2022-08-22T18:30:07.537Z,26.70
2022-08-22T18:32:48.446Z,26.50
2022-08-22T18:35:22.246Z,26.30
2022-08-22T18:37:59.161Z,26.20
2022-08-22T18:40:33.336Z,26.10
2022-08-22T18:43:14.373Z,26.00
2022-08-22T18:46:03.302Z,25.90
2022-08-22T18:48:54.477Z,25.80
2022-08-22T18:51:30.998Z,25.60
2022-08-22T18:54:26.819Z,25.50
2022-08-22T18:57:00.915Z,25.40
2022-08-22T18:59:47.594Z,25.20
2022-08-22T19:02:55.583Z,25.10
2022-08-22T19:05:43.440Z,25.00
2022-08-22T19:08:38.747Z,24.80
2022-08-22T19:11:20.809Z,24.70
2022-08-22T19:14:01.534Z,24.60
2022-08-22T19:17:15.041Z,24.50
2022-08-22T19:20:14.173Z,24.40
2022-08-22T19:22:42.686Z,24.30
2022-08-22T19:25:26.142Z,24.20
2022-08-22T19:28:26.827Z,24.10
2022-08-22T19:31:22.792Z,24.00
2022-08-22T19:34:11.530Z,23.80
2022-08-22T19:36:39.466Z,23.70
2022-08-22T19:39:09.403Z,23.70
2022-08-22T19:41:52.499Z,23.60
2022-08-22T19:44:43.170Z,23.60
2022-08-22T19:47:27.745Z,23.40
2022-08-22T19:50:02.015Z,23.30
2022-08-22T19:52:47.680Z,23.20
2022-08-22T19:55:23.368Z,23.20
2022-08-22T19:58:01.209Z,23.10
2022-08-22T20:00:52.792Z,23.10
2022-08-22T20:03:32.904Z,22.80
2022-08-22T20:06:13.778Z,22.90
2022-08-22T20:09:02.250Z,22.80
2022-08-22T20:11:39.881Z,22.70
2022-08-22T20:14:30.406Z,22.60
2022-08-22T20:17:04.589Z,22.60
2022-08-22T20:22:43.060Z,22.50
2022-08-22T20:25:41.828Z,22.40
2022-08-22T20:28:08.487Z,22.40
2022-08-22T20:30:41.469Z,22.30
2022-08-22T20:33:14.659Z,22.40
2022-08-22T20:35:52.925Z,22.30
2022-08-22T20:38:25.402Z,22.20
2022-08-22T20:41:03.749Z,22.20
2022-08-22T20:43:46.341Z,22.20
2022-08-22T20:46:26.702Z,22.10
2022-08-22T20:48:57.358Z,22.20
2022-08-22T20:51:29.198Z,22.10
2022-08-22T20:53:59.355Z,22.10
2022-08-22T20:56:35.861Z,22.00
2022-08-22T20:59:19.455Z,22.00
2022-08-22T21:01:48.679Z,22.00
2022-08-22T21:04:20.861Z,22.00
2022-08-22T21:06:48.696Z,21.90
2022-08-22T21:09:41.442Z,21.80
2022-08-22T21:12:11.426Z,21.90
2022-08-22T21:14:45.952Z,21.70
2022-08-22T21:17:23.037Z,21.60
2022-08-22T21:19:52.735Z,21.70
2022-08-22T21:22:29.002Z,21.60
2022-08-22T21:24:59.059Z,21.50
2022-08-22T21:27:32.137Z,21.50
2022-08-22T21:30:02.859Z,21.40
2022-08-22T21:32:35.054Z,21.40
2022-08-22T21:35:05.326Z,21.30
2022-08-22T21:37:38.561Z,21.30
2022-08-22T21:40:15.125Z,21.30
2022-08-22T21:42:45.894Z,21.20
2022-08-22T21:45:28.039Z,21.10
2022-08-22T21:47:56.679Z,21.00
2022-08-22T21:50:37.796Z,21.00
2022-08-22T21:53:11.796Z,20.90
2022-08-22T21:55:44.298Z,20.90
2022-08-22T21:58:37.003Z,20.80
2022-08-22T22:01:30.582Z,20.80
2022-08-22T22:04:00.841Z,20.70
2022-08-22T22:06:30.472Z,20.70
2022-08-22T22:08:58.789Z,20.60
2022-08-22T22:11:26.786Z,20.60
2022-08-22T22:13:55.217Z,20.50
2022-08-22T22:16:26.523Z,20.50
2022-08-22T22:18:55.065Z,20.40
2022-08-22T22:21:23.021Z,20.40
2022-08-22T22:23:52.500Z,20.50
2022-08-22T22:26:21.376Z,20.30
2022-08-22T22:28:50.142Z,20.30
2022-08-22T22:31:19.222Z,20.10
2022-08-22T22:33:47.403Z,20.20
2022-08-22T22:36:19.669Z,20.10
2022-08-22T22:38:47.760Z,20.10
2022-08-22T22:41:17.051Z,20.00
2022-08-22T22:43:44.962Z,20.00
2022-08-22T22:46:12.939Z,19.90
2022-08-22T22:48:40.870Z,19.90
2022-08-22T22:51:10.364Z,19.90
2022-08-22T22:53:42.650Z,19.90
2022-08-22T22:56:14.053Z,19.80
2022-08-22T22:58:46.035Z,19.70
2022-08-22T23:01:18.489Z,19.70
2022-08-22T23:03:47.241Z,19.80
2022-08-22T23:06:19.326Z,19.60
2022-08-22T23:08:47.518Z,19.60
2022-08-22T23:11:18.158Z,19.50
2022-08-22T23:13:48.450Z,19.50
2022-08-22T23:16:19.350Z,19.40
2022-08-22T23:18:47.711Z,19.40
2022-08-22T23:21:18.430Z,19.30
2022-08-22T23:23:47.541Z,19.30
2022-08-22T23:26:16.102Z,19.30
2022-08-22T23:28:44.489Z,19.20
2022-08-22T23:31:18.289Z,19.20
2022-08-22T23:33:47.223Z,19.10
2022-08-22T23:36:19.678Z,19.10
2022-08-22T23:38:48.446Z,19.10
2022-08-22T23:41:18.653Z,19.10
2022-08-22T23:43:49.641Z,19.20
2022-08-22T23:46:21.118Z,19.10
2022-08-22T23:48:49.322Z,19.00
2022-08-22T23:51:23.080Z,18.90
2022-08-22T23:53:51.475Z,18.90
2022-08-22T23:56:21.306Z,18.90
2022-08-22T23:58:51.170Z,19.40
